Whitecourt Airport
CYZU : rendu visible

Aérodrome :











RETROUVEZ-NOUS SUR...

 
LOGIN :

S'inscrire | Disclaimer

   EN    FR    IT 

 









Légende :    VFR   VFR Marginal   IFR   IFR Intensif   IFR Très Intensif
Visi : 
Plafond : 
>= 8 km
>= 3000ft
5 à 8 km
1000 à 3000 ft
1500m à 5 km
500 à 1000 ft
800 à 1500m
200 à 500 ft
< 800m
< 200 ft
Symboles :   Orages  Brouillard  Fortes neiges  Fortes précipitations  Vent > 20 kt






- Altitude de l'aérodrome : 2567 ft
- Code IATA : YZU


CYZU - Whitecourt

DERNIER METAR :
  • 261742Z 27019G25KT 15SM TS FEW060CB BKN140 13/M03 A2984 RMK CB2AC5 OCNL LTGCG S SLP116 DENSITY ALT 3100FT

METARs EXPIRÉS :
  • 261700Z 29013G21KT 15SM FEW060 BKN140 BKN220 14/01 A2984 RMK CU2AC3CI1 SLP116 DENSITY ALT 3100FT
  • 261600Z 30012KT 15SM FEW070 FEW200 12/04 A2985 RMK CU1CI2 CU TR SLP121 DENSITY ALT 2900FT
  • 261500Z 27005KT 15SM FEW140 BKN190 09/06 A2986 RMK AC2AC3 SLP126

TAF TAF CYZU
Valide du 26 à 14h jusqu'au 26 à 23h UTC


261410Z 2614/2623 VRB03KT P6SM FEW080 BKN140
BECMG 2614/2616 30010KT
FM261800 30012G22KT P6SM BKN080
TEMPO 2618/2623 P6SM -SHRA
PROB30 2621/2623 VRB15G25KT 5SM TSRA BKN060CB RMK NXT FCST BY 261900Z
FIR CZEG / Amérique du Nord



MET'MAP, la Météo Aéronautique d'un coup d'oeil ! - Copyright ORBIFLY Décembre 2007 - Disclaimer

ORBIFLY MET'MAP TEAM :

Programmation & Développement : Alexandra Zaïnal
Sur une idée originale de : Baudouin d'Aumeries
Assistance à la programmation : Marc-Olivier Méhu
Soutien technique & logistique : Manuel Goepfert

Contact : metmap@orbifly.com




SOURCES & CREDITS :

   NOAA       Earth
Advisory